Aérodrome :
LOGIN :

S'inscrire | Disclaimer

   EN    FR    IT 

 










Légende :    VFR   VFR Marginal   IFR   IFR Intensif   IFR Très Intensif
Visi : 
Plafond : 
>= 8 km
>= 3000ft
5 à 8 km
1000 à 3000 ft
1500m à 5 km
500 à 1000 ft
800 à 1500m
200 à 500 ft
< 800m
< 200 ft
Symboles :   Orages  Brouillard  Fortes neiges  Fortes précipitations  Vent > 20 kt
SIGMETs :   Divers  Orages  Givrage  Turbulence  Onde Orograph.  Cendres Volcan.







- Altitude de l'aérodrome : 296 ft
- Code IATA : GKE


ETNG - Geilenkirchen

DERNIER METAR :
  • 270050Z 04001KT CAVOK 14/09 Q1012

METARs EXPIRÉS :
  • 262350Z 02002KT CAVOK 14/09 Q1012
  • 262250Z 04003KT CAVOK 15/09 Q1013

TAF TAF ETNG
Valide du 27 à 00h jusqu'au 27 à 15h UTC


262300Z 2700/2715 03005KT CAVOK
BECMG 2706/2709 08006KT
TEMPO 2706/2710 -RA -SHRA SCT040 BKN060
TEMPO 2710/2715 3000 SHRA RA TSRA SCT020CB BKN040
Pas de NOTAMs connus pour ce terrain.
1 SIGMET publié pour la FIR Langen (EDGG) :
 
Orages noyés dans la masse
EDGG SIGMET 2 VALID 262200/270100 EDZF
EDGG LANGEN FIR EMBD TS FCST SW OF LINE N4930 E00630 - N4845 E00945 TOP FL390 MOV NE NC=



MET'MAP, la Météo Aéronautique d'un coup d'oeil ! - Copyright ORBIFLY Décembre 2007 - Disclaimer

ORBIFLY MET'MAP TEAM :

Programmation & Développement : Alexandra Zaïnal
Conception & Développement : Baudouin d'Aumeries
Co-Programmation & Développement : Marc-Olivier Méhu
Soutien technique & logistique : Manuel Goepfert

Contact : metmap@orbifly.com




SOURCES & CREDITS :

   NOAA